createdAt,value
2022-09-18T00:01:38.772Z,18.80
2022-09-18T00:04:08.630Z,18.79
2022-09-18T00:06:38.564Z,18.68
2022-09-18T00:09:10.317Z,18.73
2022-09-18T00:11:41.323Z,18.75
2022-09-18T00:14:11.101Z,18.65
2022-09-18T00:16:39.439Z,18.72
2022-09-18T00:19:07.529Z,18.66
2022-09-18T00:21:37.386Z,18.62
2022-09-18T00:24:05.877Z,18.56
2022-09-18T00:26:33.562Z,18.54
2022-09-18T00:29:00.872Z,18.62
2022-09-18T00:31:30.792Z,18.63
2022-09-18T00:34:00.825Z,18.62
2022-09-18T00:36:30.035Z,18.62
2022-09-18T00:39:01.520Z,18.56
2022-09-18T00:41:38.599Z,18.35
2022-09-18T00:44:42.181Z,18.37
2022-09-18T00:47:12.465Z,18.33
2022-09-18T00:49:43.405Z,18.28
2022-09-18T00:52:11.982Z,18.26
2022-09-18T00:54:43.587Z,18.27
2022-09-18T00:57:24.998Z,18.25
2022-09-18T00:59:52.873Z,18.23
2022-09-18T01:02:20.540Z,18.18
2022-09-18T01:04:49.443Z,18.11
2022-09-18T01:07:31.778Z,18.24
2022-09-18T01:10:24.433Z,18.11
2022-09-18T01:13:00.354Z,18.19
2022-09-18T01:15:57.306Z,18.11
2022-09-18T01:18:48.790Z,18.20
2022-09-18T01:21:32.240Z,18.18
2022-09-18T01:24:11.711Z,18.23
2022-09-18T01:26:59.522Z,18.19
2022-09-18T01:29:45.836Z,18.32
2022-09-18T01:32:41.122Z,18.42
2022-09-18T01:35:36.842Z,18.45
2022-09-18T01:38:32.544Z,18.42
2022-09-18T01:41:08.601Z,18.35
2022-09-18T01:43:38.769Z,18.39
2022-09-18T01:46:12.452Z,18.35
2022-09-18T01:48:59.982Z,18.38
2022-09-18T01:51:35.188Z,18.29
2022-09-18T01:54:15.947Z,18.17
2022-09-18T01:56:57.462Z,18.24
2022-09-18T01:59:37.350Z,18.13
2022-09-18T02:02:21.496Z,18.28
2022-09-18T02:04:55.670Z,18.15
2022-09-18T02:07:34.663Z,18.08
2022-09-18T02:10:02.926Z,17.75
2022-09-18T02:12:35.847Z,17.50
2022-09-18T02:15:13.634Z,17.37
2022-09-18T02:18:06.905Z,17.46
2022-09-18T02:20:42.371Z,17.33
2022-09-18T02:23:10.518Z,17.19
2022-09-18T02:25:47.802Z,16.77
2022-09-18T02:28:18.239Z,16.97
2022-09-18T02:30:46.030Z,16.88
2022-09-18T02:33:33.024Z,16.66
2022-09-18T02:36:10.560Z,16.64
2022-09-18T02:38:58.154Z,16.63
2022-09-18T02:41:50.245Z,16.63
2022-09-18T02:44:43.387Z,16.58
2022-09-18T02:47:30.777Z,16.57
2022-09-18T02:50:13.157Z,16.56
2022-09-18T02:52:52.776Z,16.56
2022-09-18T02:55:30.491Z,16.40
2022-09-18T02:58:09.605Z,16.38
2022-09-18T03:00:44.020Z,16.39
2022-09-18T03:03:18.157Z,16.38
2022-09-18T03:05:52.478Z,16.31
2022-09-18T03:08:19.678Z,16.27
2022-09-18T03:10:46.976Z,16.22
2022-09-18T03:13:15.371Z,16.31
2022-09-18T03:15:42.917Z,16.22
2022-09-18T03:18:10.932Z,16.22
2022-09-18T03:20:41.818Z,16.20
2022-09-18T03:23:12.269Z,16.16
2022-09-18T03:25:41.097Z,16.21
2022-09-18T03:28:10.081Z,15.90
2022-09-18T03:30:41.515Z,15.91
2022-09-18T03:33:08.836Z,15.87
2022-09-18T03:35:36.302Z,15.80
2022-09-18T03:38:03.618Z,15.74
2022-09-18T03:40:31.835Z,15.60
2022-09-18T03:43:02.814Z,15.55
2022-09-18T03:45:30.039Z,15.47
2022-09-18T03:47:57.106Z,15.45
2022-09-18T03:50:25.306Z,15.44
2022-09-18T03:52:53.253Z,15.40
2022-09-18T03:55:50.786Z,15.19
2022-09-18T03:58:27.068Z,15.08
2022-09-18T04:01:32.551Z,14.96
2022-09-18T04:04:18.305Z,14.88
2022-09-18T04:07:04.434Z,14.90
2022-09-18T04:10:10.270Z,14.84
2022-09-18T04:12:39.358Z,14.78
2022-09-18T04:15:19.196Z,14.74
2022-09-18T04:17:47.928Z,14.72
2022-09-18T04:20:15.331Z,14.80
2022-09-18T04:22:42.851Z,14.87
2022-09-18T04:25:10.506Z,14.75
2022-09-18T04:27:38.797Z,14.80
2022-09-18T04:30:06.558Z,14.79
2022-09-18T04:32:35.569Z,14.77
2022-09-18T04:35:03.633Z,14.81
2022-09-18T04:37:31.911Z,14.90
2022-09-18T04:40:01.564Z,14.84
2022-09-18T04:42:31.242Z,14.73
2022-09-18T04:44:58.566Z,14.83
2022-09-18T04:47:25.886Z,14.76
2022-09-18T04:49:53.945Z,14.66
2022-09-18T04:52:21.823Z,14.61
2022-09-18T04:54:49.002Z,14.51
2022-09-18T04:57:16.469Z,14.54
2022-09-18T04:59:47.203Z,14.48
2022-09-18T05:02:14.896Z,14.47
2022-09-18T05:04:42.421Z,14.50
2022-09-18T05:07:21.965Z,14.38
2022-09-18T05:09:49.765Z,14.41
2022-09-18T05:12:17.770Z,14.31
2022-09-18T05:14:46.793Z,14.23
2022-09-18T05:17:17.463Z,14.12
2022-09-18T05:19:58.360Z,14.15
2022-09-18T05:22:27.194Z,13.99
2022-09-18T05:24:54.311Z,14.02
2022-09-18T05:27:26.624Z,14.15
2022-09-18T05:29:54.719Z,14.11
2022-09-18T05:32:26.755Z,14.17
2022-09-18T05:34:53.994Z,14.26
2022-09-18T05:37:21.862Z,14.29
2022-09-18T05:39:53.240Z,14.25
2022-09-18T05:42:20.782Z,14.23
2022-09-18T05:44:49.384Z,14.27
2022-09-18T05:47:21.445Z,14.32
2022-09-18T05:49:48.794Z,14.31
2022-09-18T05:52:16.428Z,14.44
2022-09-18T05:54:44.334Z,14.54
2022-09-18T05:57:11.371Z,14.63
2022-09-18T05:59:38.490Z,14.61
2022-09-18T06:02:06.245Z,14.71
2022-09-18T06:04:56.261Z,14.70
2022-09-18T06:07:23.833Z,14.85
2022-09-18T06:09:51.108Z,14.96
2022-09-18T06:12:18.117Z,14.93
2022-09-18T06:14:45.795Z,14.97
2022-09-18T06:17:14.537Z,14.92
2022-09-18T06:19:41.774Z,14.96
2022-09-18T06:22:10.234Z,14.90
2022-09-18T06:24:37.374Z,14.83
2022-09-18T06:27:10.549Z,14.85
2022-09-18T06:29:41.633Z,14.86
2022-09-18T06:32:14.844Z,15.01
2022-09-18T06:34:43.019Z,15.06
2022-09-18T06:37:14.048Z,15.15
2022-09-18T06:39:51.046Z,15.15
2022-09-18T06:42:37.467Z,15.22
2022-09-18T06:45:34.367Z,15.32
2022-09-18T06:48:02.979Z,15.40
2022-09-18T06:50:31.126Z,15.33
2022-09-18T06:53:03.170Z,15.30
2022-09-18T06:55:34.619Z,15.22
2022-09-18T06:58:01.870Z,15.21
2022-09-18T07:00:29.451Z,15.22
2022-09-18T07:03:01.204Z,15.31
2022-09-18T07:05:48.000Z,15.15
2022-09-18T07:08:29.132Z,15.24
2022-09-18T07:11:06.524Z,15.11
2022-09-18T07:13:37.649Z,15.06
2022-09-18T07:16:06.498Z,14.93
2022-09-18T07:18:33.982Z,15.01
2022-09-18T07:21:01.895Z,14.98
2022-09-18T07:23:36.600Z,15.04
2022-09-18T07:26:04.813Z,15.11
2022-09-18T07:28:33.993Z,15.09
2022-09-18T07:31:13.919Z,15.18
2022-09-18T07:33:55.599Z,15.08
2022-09-18T07:36:28.323Z,15.36
2022-09-18T07:38:56.592Z,15.48
2022-09-18T07:41:29.278Z,15.40
2022-09-18T07:43:56.713Z,15.48
2022-09-18T07:46:24.664Z,15.88
2022-09-18T07:48:56.977Z,15.99
2022-09-18T07:51:27.823Z,15.98
2022-09-18T07:53:57.089Z,16.07
2022-09-18T07:56:47.713Z,16.20
2022-09-18T07:59:21.396Z,16.10
2022-09-18T08:01:56.624Z,16.23
2022-09-18T08:04:25.739Z,16.29
2022-09-18T08:07:10.339Z,16.26
2022-09-18T08:09:58.270Z,16.53
2022-09-18T08:12:49.028Z,16.57
2022-09-18T08:15:41.180Z,16.73
2022-09-18T08:18:46.910Z,16.94
2022-09-18T08:21:40.092Z,17.24
2022-09-18T08:24:13.876Z,17.22
2022-09-18T08:26:44.701Z,17.16
2022-09-18T08:29:18.953Z,17.13
2022-09-18T08:32:07.742Z,17.09
2022-09-18T08:34:37.711Z,17.23
2022-09-18T08:37:05.213Z,17.43
2022-09-18T08:39:53.443Z,17.46
2022-09-18T08:42:55.648Z,17.42
2022-09-18T08:45:50.069Z,17.33
2022-09-18T08:48:26.384Z,17.39
2022-09-18T08:51:00.551Z,17.41
2022-09-18T08:53:43.296Z,17.49
2022-09-18T08:56:34.994Z,17.25
2022-09-18T08:59:32.755Z,17.12
2022-09-18T09:02:37.924Z,17.09
2022-09-18T09:05:37.192Z,17.16
2022-09-18T09:08:38.373Z,17.42
2022-09-18T09:11:35.132Z,17.49
2022-09-18T09:14:52.719Z,17.40
2022-09-18T09:17:22.754Z,17.52
2022-09-18T09:20:01.127Z,17.49
2022-09-18T09:22:51.617Z,17.52
2022-09-18T09:25:47.614Z,17.71
2022-09-18T09:28:34.278Z,17.73
2022-09-18T09:31:20.701Z,17.65
2022-09-18T09:34:07.028Z,17.80
2022-09-18T09:36:58.782Z,17.85
2022-09-18T09:39:40.501Z,18.01
2022-09-18T09:42:25.952Z,18.20
2022-09-18T09:45:02.652Z,18.30
2022-09-18T09:47:48.242Z,18.15
2022-09-18T09:50:43.350Z,18.26
2022-09-18T09:53:12.826Z,18.03
2022-09-18T09:55:56.966Z,18.08
2022-09-18T09:58:38.485Z,18.18
2022-09-18T10:01:24.975Z,18.34
2022-09-18T10:04:06.706Z,18.30
2022-09-18T10:06:58.610Z,18.30
2022-09-18T10:09:42.041Z,18.31
2022-09-18T10:12:22.019Z,18.33
2022-09-18T10:14:54.271Z,18.26
2022-09-18T10:17:23.663Z,18.24
2022-09-18T10:19:50.862Z,18.35
2022-09-18T10:22:23.293Z,18.61
2022-09-18T10:24:53.666Z,18.82
2022-09-18T10:27:21.456Z,18.88
2022-09-18T10:29:51.296Z,18.82
2022-09-18T10:32:53.033Z,19.00
2022-09-18T10:35:43.662Z,18.86
2022-09-18T10:38:30.779Z,18.92
2022-09-18T10:41:30.937Z,19.10
2022-09-18T10:44:24.065Z,19.12
2022-09-18T10:47:00.644Z,19.06
2022-09-18T10:49:33.446Z,18.96
2022-09-18T10:52:36.261Z,19.05
2022-09-18T10:55:25.091Z,18.98
2022-09-18T10:58:16.397Z,18.66
2022-09-18T11:01:05.569Z,18.92
2022-09-18T11:03:46.660Z,18.58
2022-09-18T11:06:29.665Z,18.51
2022-09-18T11:09:02.840Z,18.52
2022-09-18T11:11:36.549Z,18.62
2022-09-18T11:14:27.184Z,18.83
2022-09-18T11:17:02.336Z,19.02
2022-09-18T11:19:39.298Z,19.01
2022-09-18T11:22:35.093Z,18.97
2022-09-18T11:25:28.137Z,19.25
2022-09-18T11:28:01.297Z,19.23
2022-09-18T11:30:38.687Z,19.33
2022-09-18T11:33:10.627Z,19.50
2022-09-18T11:35:50.838Z,19.53
2022-09-18T11:38:20.272Z,19.35
2022-09-18T11:40:54.582Z,19.44
2022-09-18T11:43:29.624Z,19.43
2022-09-18T11:46:46.649Z,19.55
2022-09-18T11:49:24.059Z,19.46
2022-09-18T11:51:59.595Z,19.53
2022-09-18T11:54:57.728Z,19.56
2022-09-18T11:57:39.757Z,19.49
2022-09-18T12:00:21.058Z,19.51
2022-09-18T12:03:13.672Z,19.54
2022-09-18T12:05:52.540Z,19.47
2022-09-18T12:08:30.689Z,19.30
2022-09-18T12:11:13.366Z,19.39
2022-09-18T12:13:59.559Z,19.52
2022-09-18T12:16:41.146Z,19.43
2022-09-18T12:19:25.821Z,19.66
2022-09-18T12:22:01.907Z,19.69
2022-09-18T12:24:30.131Z,19.74
2022-09-18T12:27:28.098Z,19.64
2022-09-18T12:30:15.496Z,19.61
2022-09-18T12:33:08.594Z,19.58
2022-09-18T12:35:44.860Z,19.59
2022-09-18T12:38:36.712Z,19.53
2022-09-18T12:41:10.417Z,19.38
2022-09-18T12:44:19.027Z,19.23
2022-09-18T12:47:22.110Z,19.30
2022-09-18T12:49:58.709Z,19.29
2022-09-18T12:52:28.753Z,19.42
2022-09-18T12:54:58.888Z,19.38
2022-09-18T12:57:48.257Z,19.34
2022-09-18T13:00:16.725Z,19.39
2022-09-18T13:02:51.539Z,19.41
2022-09-18T13:05:40.898Z,19.49
2022-09-18T13:08:17.762Z,19.47
2022-09-18T13:10:47.369Z,19.53
2022-09-18T13:13:44.123Z,19.51
2022-09-18T13:16:21.877Z,19.62
2022-09-18T13:19:04.112Z,19.47
2022-09-18T13:21:38.570Z,19.40
2022-09-18T13:24:07.131Z,19.35
2022-09-18T13:26:39.725Z,19.31
2022-09-18T13:29:44.602Z,19.46
2022-09-18T13:32:13.835Z,19.47
2022-09-18T13:34:52.678Z,19.23
2022-09-18T13:37:23.036Z,19.24
2022-09-18T13:40:09.684Z,19.27
2022-09-18T13:42:42.933Z,19.30
2022-09-18T13:45:20.646Z,19.31
2022-09-18T13:48:04.790Z,19.37
2022-09-18T13:50:34.531Z,19.35
2022-09-18T13:53:04.255Z,19.27
2022-09-18T13:55:37.594Z,19.29
2022-09-18T13:58:35.586Z,19.11
2022-09-18T14:01:10.567Z,18.97
2022-09-18T14:03:40.587Z,19.02
2022-09-18T14:06:37.205Z,18.85
2022-09-18T14:09:46.833Z,18.80
2022-09-18T14:12:16.082Z,18.78
2022-09-18T14:14:44.731Z,18.88
2022-09-18T14:17:14.209Z,18.94
2022-09-18T14:19:45.202Z,18.76
2022-09-18T14:22:29.061Z,18.83
2022-09-18T14:25:00.676Z,18.94
2022-09-18T14:27:36.155Z,19.01
2022-09-18T14:30:28.007Z,19.00
2022-09-18T14:33:19.107Z,18.96
2022-09-18T14:35:56.074Z,18.96
2022-09-18T14:38:26.000Z,18.89
2022-09-18T14:41:01.186Z,18.86
2022-09-18T14:43:28.440Z,18.90
2022-09-18T14:45:56.117Z,18.92
2022-09-18T14:48:29.327Z,18.80
2022-09-18T14:51:02.563Z,18.73
2022-09-18T14:53:30.764Z,18.70
2022-09-18T14:56:04.113Z,18.64
2022-09-18T14:58:37.811Z,18.82
2022-09-18T15:01:08.796Z,18.69
2022-09-18T15:03:47.067Z,18.54
2022-09-18T15:06:14.480Z,18.56
2022-09-18T15:08:44.667Z,18.51
2022-09-18T15:11:17.693Z,18.42
2022-09-18T15:13:50.275Z,18.36
2022-09-18T15:16:32.823Z,18.22
2022-09-18T15:19:00.763Z,18.22
2022-09-18T15:21:33.550Z,18.17
2022-09-18T15:24:03.413Z,17.98
2022-09-18T15:26:36.068Z,18.15
2022-09-18T15:29:05.612Z,18.17
2022-09-18T15:31:34.526Z,18.13
2022-09-18T15:34:07.957Z,18.06
2022-09-18T15:36:38.108Z,17.94
2022-09-18T15:39:09.811Z,17.96
2022-09-18T15:41:41.906Z,17.88
2022-09-18T15:44:56.104Z,17.90
2022-09-18T15:47:26.242Z,17.90
2022-09-18T15:49:54.251Z,17.77
2022-09-18T15:52:40.858Z,17.68
2022-09-18T15:55:10.793Z,17.56
2022-09-18T15:57:38.719Z,17.54
2022-09-18T16:00:10.860Z,17.48
2022-09-18T16:02:40.047Z,17.44
2022-09-18T16:05:21.981Z,17.40
2022-09-18T16:07:58.217Z,17.19
2022-09-18T16:10:44.872Z,17.13
2022-09-18T16:13:14.976Z,17.08
2022-09-18T16:15:52.043Z,16.93
2022-09-18T16:18:25.761Z,16.98
2022-09-18T16:20:54.008Z,17.02
2022-09-18T16:23:34.945Z,17.00
2022-09-18T16:26:14.034Z,16.92
2022-09-18T16:28:45.344Z,16.76
2022-09-18T16:31:13.570Z,16.73
2022-09-18T16:33:55.516Z,16.71
2022-09-18T16:36:35.872Z,16.66
2022-09-18T16:39:08.101Z,16.60
2022-09-18T16:41:36.120Z,16.59
2022-09-18T16:44:04.893Z,16.64
2022-09-18T16:46:43.090Z,16.47
2022-09-18T16:49:13.201Z,16.56
2022-09-18T16:51:40.531Z,16.43
2022-09-18T16:54:07.638Z,16.40
2022-09-18T16:56:40.447Z,16.41
2022-09-18T16:59:07.743Z,16.42
2022-09-18T17:01:54.164Z,16.38
2022-09-18T17:04:24.400Z,16.35
2022-09-18T17:06:51.672Z,16.29
2022-09-18T17:09:18.990Z,16.24
2022-09-18T17:11:50.601Z,16.24
2022-09-18T17:14:17.742Z,16.20
2022-09-18T17:16:45.245Z,16.18
2022-09-18T17:19:13.993Z,16.18
2022-09-18T17:21:41.854Z,16.16
2022-09-18T17:24:10.273Z,16.14
2022-09-18T17:26:39.392Z,16.16
2022-09-18T17:29:06.894Z,16.12
2022-09-18T17:31:34.186Z,16.05
2022-09-18T17:34:01.402Z,16.06
2022-09-18T17:36:28.796Z,16.09
2022-09-18T17:38:59.406Z,16.04
2022-09-18T17:41:33.132Z,16.00
2022-09-18T17:44:00.868Z,15.92
2022-09-18T17:46:27.963Z,15.91
2022-09-18T17:48:56.703Z,15.93
2022-09-18T17:51:28.381Z,15.83
2022-09-18T17:54:02.996Z,15.83
2022-09-18T17:56:31.229Z,15.75
2022-09-18T17:59:02.903Z,15.77
2022-09-18T18:01:30.370Z,15.82
2022-09-18T18:03:58.301Z,15.77
2022-09-18T18:06:26.162Z,15.71
2022-09-18T18:08:53.343Z,15.65
2022-09-18T18:11:22.860Z,15.70
2022-09-18T18:13:51.619Z,15.64
2022-09-18T18:16:24.827Z,15.60
2022-09-18T18:18:54.692Z,15.63
2022-09-18T18:21:22.750Z,15.58
2022-09-18T18:23:55.296Z,15.35
2022-09-18T18:26:23.824Z,15.50
2022-09-18T18:28:51.122Z,15.45
2022-09-18T18:31:18.401Z,15.48
2022-09-18T18:33:45.771Z,15.39
2022-09-18T18:36:17.705Z,15.35
2022-09-18T18:38:48.165Z,15.23
2022-09-18T18:41:18.287Z,15.06
2022-09-18T18:43:45.901Z,15.19
2022-09-18T18:46:15.569Z,15.16
2022-09-18T18:48:44.415Z,15.06
2022-09-18T18:51:15.319Z,15.05
2022-09-18T18:53:43.513Z,15.06
2022-09-18T18:56:16.017Z,15.03
2022-09-18T18:58:47.004Z,15.05
2022-09-18T19:01:18.747Z,15.07
2022-09-18T19:03:57.318Z,15.03
2022-09-18T19:06:25.030Z,14.99
2022-09-18T19:09:04.456Z,15.03
2022-09-18T19:11:33.699Z,15.08
2022-09-18T19:14:01.154Z,15.01
2022-09-18T19:16:29.940Z,15.01
2022-09-18T19:18:59.804Z,14.94
2022-09-18T19:21:29.706Z,14.96
2022-09-18T19:24:03.065Z,14.93
2022-09-18T19:26:30.771Z,14.95
2022-09-18T19:29:01.297Z,14.95
2022-09-18T19:31:29.913Z,14.89
2022-09-18T19:33:58.004Z,14.93
2022-09-18T19:36:28.723Z,14.94
2022-09-18T19:38:58.738Z,14.98
2022-09-18T19:41:33.266Z,14.93
2022-09-18T19:44:03.287Z,14.77
2022-09-18T19:46:32.498Z,14.84
2022-09-18T19:49:00.379Z,14.85
2022-09-18T19:51:29.246Z,14.81
2022-09-18T19:53:56.282Z,14.74
2022-09-18T19:56:42.192Z,14.68
2022-09-18T19:59:10.499Z,14.67
2022-09-18T20:01:38.044Z,14.69
2022-09-18T20:04:05.325Z,14.55
2022-09-18T20:06:33.041Z,14.44
2022-09-18T20:09:00.974Z,14.28
2022-09-18T20:11:28.499Z,14.23
2022-09-18T20:13:55.822Z,14.24
2022-09-18T20:16:23.143Z,14.28
2022-09-18T20:18:50.500Z,14.32
2022-09-18T20:21:19.447Z,14.29
2022-09-18T20:23:48.384Z,14.25
2022-09-18T20:26:18.319Z,14.24
2022-09-18T20:28:45.452Z,14.27
2022-09-18T20:31:15.307Z,14.29
2022-09-18T20:33:43.792Z,14.30
2022-09-18T20:36:12.004Z,14.34
2022-09-18T20:38:42.343Z,14.24
2022-09-18T20:41:13.611Z,14.10
2022-09-18T20:43:43.757Z,14.01
2022-09-18T20:46:16.292Z,13.99
2022-09-18T20:48:59.922Z,14.02
2022-09-18T20:51:35.091Z,14.10
2022-09-18T20:54:04.758Z,13.99
2022-09-18T20:56:47.306Z,14.15
2022-09-18T20:59:16.686Z,14.02
2022-09-18T21:01:45.954Z,14.13
2022-09-18T21:04:19.548Z,13.97
2022-09-18T21:06:57.871Z,13.93
2022-09-18T21:09:29.122Z,13.94
2022-09-18T21:11:57.787Z,13.96
2022-09-18T21:14:27.465Z,14.02
2022-09-18T21:16:55.326Z,14.00
2022-09-18T21:19:26.299Z,14.11
2022-09-18T21:21:53.814Z,14.00
2022-09-18T21:24:22.337Z,13.95
2022-09-18T21:26:50.679Z,13.83
2022-09-18T21:29:25.265Z,13.73
2022-09-18T21:31:59.679Z,13.65
2022-09-18T21:34:30.241Z,13.62
2022-09-18T21:37:00.035Z,13.62
2022-09-18T21:39:28.788Z,13.63
2022-09-18T21:41:57.626Z,13.63
2022-09-18T21:44:29.686Z,13.52
2022-09-18T21:46:59.855Z,13.48
2022-09-18T21:49:29.157Z,13.42
2022-09-18T21:51:58.579Z,13.45
2022-09-18T21:54:27.174Z,13.44
2022-09-18T21:56:55.422Z,13.41
2022-09-18T21:59:25.452Z,13.42
2022-09-18T22:01:55.231Z,13.41
2022-09-18T22:04:26.343Z,13.45
2022-09-18T22:06:56.105Z,12.99
2022-09-18T22:09:32.023Z,13.32
2022-09-18T22:12:01.321Z,13.11
2022-09-18T22:14:32.466Z,13.25
2022-09-18T22:17:04.339Z,13.15
2022-09-18T22:19:33.450Z,13.04
2022-09-18T22:22:01.537Z,13.06
2022-09-18T22:24:29.218Z,13.07
2022-09-18T22:27:08.753Z,13.05
2022-09-18T22:29:38.221Z,13.03
2022-09-18T22:32:06.176Z,12.97
2022-09-18T22:34:37.468Z,13.01
2022-09-18T22:37:04.583Z,12.86
2022-09-18T22:39:31.711Z,12.82
2022-09-18T22:41:59.121Z,12.77
2022-09-18T22:44:26.259Z,12.75
2022-09-18T22:46:53.501Z,12.79
2022-09-18T22:49:22.758Z,12.68
2022-09-18T22:51:50.681Z,12.65
2022-09-18T22:54:23.836Z,12.55
2022-09-18T22:56:52.330Z,12.58
2022-09-18T22:59:21.771Z,12.61
2022-09-18T23:02:02.606Z,12.58
2022-09-18T23:04:31.777Z,12.55
2022-09-18T23:06:59.378Z,12.57
2022-09-18T23:09:27.539Z,12.62
2022-09-18T23:11:55.295Z,12.55
2022-09-18T23:14:28.279Z,12.47
2022-09-18T23:16:56.562Z,12.38
2022-09-18T23:19:26.923Z,12.42
2022-09-18T23:21:54.847Z,12.44
2022-09-18T23:24:23.282Z,12.28
2022-09-18T23:26:53.663Z,12.21
2022-09-18T23:29:24.615Z,12.17
2022-09-18T23:31:53.604Z,12.22
2022-09-18T23:34:24.159Z,12.25
2022-09-18T23:36:53.369Z,12.21
2022-09-18T23:39:29.251Z,12.16
2022-09-18T23:41:58.958Z,12.09
2022-09-18T23:44:28.714Z,12.01
2022-09-18T23:46:56.366Z,11.94
2022-09-18T23:49:24.037Z,11.92
2022-09-18T23:51:53.245Z,11.82
2022-09-18T23:54:23.608Z,11.71
2022-09-18T23:56:51.639Z,11.79
2022-09-18T23:59:22.885Z,11.77
